createdAt,value
2023-05-27T00:01:19.821Z,99952.88
2023-05-27T00:03:12.319Z,99952.28
2023-05-27T00:05:18.608Z,99948.13
2023-05-27T00:07:12.245Z,99956.44
2023-05-27T00:09:15.188Z,99957.38
2023-05-27T00:11:16.602Z,99952.41
2023-05-27T00:13:24.478Z,99957.97
2023-05-27T00:15:19.339Z,99952.00
2023-05-27T00:17:13.393Z,99953.09
2023-05-27T00:19:15.982Z,99944.44
2023-05-27T00:21:13.176Z,99940.31
2023-05-27T00:23:25.730Z,99933.25
2023-05-27T00:25:17.439Z,99936.16
2023-05-27T00:27:16.611Z,99939.94
2023-05-27T00:29:12.994Z,99940.16
2023-05-27T00:31:09.524Z,99935.06
2023-05-27T00:33:00.901Z,99937.75
2023-05-27T00:34:52.829Z,99934.22
2023-05-27T00:36:48.521Z,99940.56
2023-05-27T00:38:42.208Z,99940.03
2023-05-27T00:40:40.437Z,99944.66
2023-05-27T00:42:32.372Z,99938.81
2023-05-27T00:44:23.617Z,99944.38
2023-05-27T00:46:15.431Z,99944.50
2023-05-27T00:48:08.435Z,99939.28
2023-05-27T00:50:01.100Z,99942.94
2023-05-27T00:51:53.504Z,99942.09
2023-05-27T00:53:49.358Z,99946.78
2023-05-27T00:55:51.836Z,99954.22
2023-05-27T00:57:54.264Z,99957.22
2023-05-27T00:59:46.758Z,99958.19
2023-05-27T01:01:38.193Z,99970.72
2023-05-27T01:05:52.062Z,99974.69
2023-05-27T01:08:22.103Z,99971.53
2023-05-27T01:10:51.198Z,99969.22
2023-05-27T01:13:24.158Z,99976.50
2023-05-27T01:15:15.338Z,99976.59
2023-05-27T01:17:10.984Z,99968.56
2023-05-27T01:19:03.566Z,99969.34
2023-05-27T01:21:00.854Z,99979.91
2023-05-27T01:22:52.489Z,99969.22
2023-05-27T01:24:43.605Z,99970.91
2023-05-27T01:26:34.562Z,99967.03
2023-05-27T01:28:25.586Z,99971.19
2023-05-27T01:30:17.527Z,99971.06
2023-05-27T01:32:20.047Z,99961.34
2023-05-27T01:34:20.024Z,99972.03
2023-05-27T01:36:18.716Z,99970.22
2023-05-27T01:38:19.265Z,99973.84
2023-05-27T01:40:13.911Z,99970.44
2023-05-27T01:42:07.501Z,99976.66
2023-05-27T01:43:59.672Z,99976.66
2023-05-27T01:45:51.230Z,99979.44
2023-05-27T01:47:45.146Z,99979.56
2023-05-27T01:49:36.420Z,99976.00
2023-05-27T01:51:27.720Z,99977.94
2023-05-27T01:53:18.660Z,99977.22
2023-05-27T01:55:12.856Z,99981.72
2023-05-27T01:57:04.885Z,99972.34
2023-05-27T01:58:57.033Z,99978.78
2023-05-27T02:00:55.773Z,99987.97
2023-05-27T02:02:48.148Z,99985.63
2023-05-27T02:04:40.277Z,99991.94
2023-05-27T02:06:32.406Z,99993.16
2023-05-27T02:08:25.647Z,99991.53
2023-05-27T02:10:16.509Z,99995.44
2023-05-27T02:12:08.360Z,99994.78
2023-05-27T02:14:04.289Z,99987.25
2023-05-27T02:15:57.260Z,99991.19
2023-05-27T02:17:48.970Z,99993.19
2023-05-27T02:19:42.189Z,99993.31
2023-05-27T02:21:34.208Z,99991.50
2023-05-27T02:23:26.397Z,99996.31
2023-05-27T02:25:18.073Z,99994.72
2023-05-27T02:27:11.713Z,100000.91
2023-05-27T02:29:03.718Z,100005.53
2023-05-27T02:31:01.713Z,100003.19
2023-05-27T02:32:56.741Z,100010.69
2023-05-27T02:34:48.135Z,100008.22
2023-05-27T02:36:40.112Z,100016.47
2023-05-27T02:38:31.828Z,100018.38
2023-05-27T02:40:29.010Z,100015.69
2023-05-27T02:42:25.745Z,100019.34
2023-05-27T02:44:16.824Z,100023.94
2023-05-27T02:46:15.819Z,100025.44
2023-05-27T02:48:20.412Z,100031.63
2023-05-27T02:50:15.086Z,100037.06
2023-05-27T02:52:16.053Z,100031.72
2023-05-27T02:54:07.553Z,100028.19
2023-05-27T02:55:58.973Z,100035.34
2023-05-27T02:57:50.323Z,100032.69
2023-05-27T02:59:45.916Z,100031.81
2023-05-27T03:01:40.134Z,100038.03
2023-05-27T03:03:32.755Z,100030.78
2023-05-27T03:05:28.020Z,100039.53
2023-05-27T03:07:20.340Z,100042.31
2023-05-27T03:09:11.873Z,100050.41
2023-05-27T03:11:02.845Z,100047.72
2023-05-27T03:12:55.724Z,100053.84
2023-05-27T03:14:46.516Z,100053.84
2023-05-27T03:16:37.625Z,100049.34
2023-05-27T03:18:28.493Z,100059.91
2023-05-27T03:20:19.618Z,100062.59
2023-05-27T03:22:10.572Z,100067.28
2023-05-27T03:24:09.114Z,100072.00
2023-05-27T03:26:01.192Z,100067.81
2023-05-27T03:27:56.570Z,100065.13
2023-05-27T03:29:48.154Z,100070.47
2023-05-27T03:31:40.503Z,100075.81
2023-05-27T03:33:33.366Z,100066.97
2023-05-27T03:35:24.880Z,100066.00
2023-05-27T03:37:16.070Z,100062.28
2023-05-27T03:39:09.186Z,100064.94
2023-05-27T03:41:02.598Z,100066.53
2023-05-27T03:42:55.312Z,100065.47
2023-05-27T03:44:52.247Z,100069.94
2023-05-27T03:46:43.388Z,100071.75
2023-05-27T03:48:38.458Z,100077.94
2023-05-27T03:50:36.743Z,100077.09
2023-05-27T03:52:29.211Z,100083.22
2023-05-27T03:54:24.233Z,100078.59
2023-05-27T03:56:22.537Z,100082.66
2023-05-27T03:58:14.193Z,100080.63
2023-05-27T04:00:06.292Z,100082.22
2023-05-27T04:01:58.353Z,100086.72
2023-05-27T04:03:52.456Z,100083.50
2023-05-27T04:05:44.342Z,100083.28
2023-05-27T04:07:35.934Z,100087.66
2023-05-27T04:09:28.753Z,100087.53
2023-05-27T04:11:22.249Z,100096.00
2023-05-27T04:13:17.443Z,100097.38
2023-05-27T04:15:10.914Z,100099.63
2023-05-27T04:17:01.900Z,100102.91
2023-05-27T04:18:55.869Z,100103.75
2023-05-27T04:20:49.609Z,100108.91
2023-05-27T04:22:45.358Z,100103.31
2023-05-27T04:24:36.753Z,100105.78
2023-05-27T04:26:28.286Z,100107.25
2023-05-27T04:28:22.518Z,100108.03
2023-05-27T04:30:19.973Z,100107.78
2023-05-27T04:32:14.771Z,100108.63
2023-05-27T04:34:13.302Z,100110.03
2023-05-27T04:36:07.777Z,100113.50
2023-05-27T04:37:59.413Z,100108.94
2023-05-27T04:39:49.831Z,100115.47
2023-05-27T04:41:42.137Z,100111.19
2023-05-27T04:43:33.904Z,100116.63
2023-05-27T04:45:25.561Z,100115.19
2023-05-27T04:47:17.768Z,100111.59
2023-05-27T04:49:20.985Z,100115.63
2023-05-27T04:51:15.481Z,100113.81
2023-05-27T04:53:07.700Z,100113.47
2023-05-27T04:55:01.883Z,100119.28
2023-05-27T04:56:52.845Z,100114.88
2023-05-27T04:58:49.503Z,100118.25
2023-05-27T05:00:41.277Z,100124.03
2023-05-27T05:02:37.195Z,100113.81
2023-05-27T05:04:29.337Z,100113.50
2023-05-27T05:06:23.738Z,100121.81
2023-05-27T05:08:14.661Z,100107.63
2023-05-27T05:10:09.911Z,100115.78
2023-05-27T05:12:03.274Z,100118.84
2023-05-27T05:13:53.956Z,100113.41
2023-05-27T05:15:45.431Z,100112.06
2023-05-27T05:17:36.654Z,100115.22
2023-05-27T05:19:27.794Z,100121.16
2023-05-27T05:21:18.850Z,100113.84
2023-05-27T05:23:10.078Z,100117.66
2023-05-27T05:25:01.376Z,100110.69
2023-05-27T05:26:53.677Z,100110.44
2023-05-27T05:28:44.893Z,100109.13
2023-05-27T05:30:43.878Z,100100.91
2023-05-27T05:32:39.642Z,100101.53
2023-05-27T05:34:34.450Z,100104.91
2023-05-27T05:36:29.180Z,100106.22
2023-05-27T05:38:26.831Z,100099.56
2023-05-27T05:40:18.279Z,100101.44
2023-05-27T05:42:14.278Z,100104.75
2023-05-27T05:44:07.906Z,100110.00
2023-05-27T05:45:58.792Z,100098.66
2023-05-27T05:47:53.125Z,100101.09
2023-05-27T05:49:44.892Z,100098.19
2023-05-27T05:51:37.182Z,100096.38
2023-05-27T05:53:30.574Z,100100.59
2023-05-27T05:55:22.343Z,100106.09
2023-05-27T05:57:15.042Z,100109.44
2023-05-27T05:59:06.013Z,100101.00
2023-05-27T06:01:00.016Z,100106.78
2023-05-27T06:02:52.578Z,100106.50
2023-05-27T06:04:46.278Z,100098.25
2023-05-27T06:06:41.035Z,100107.19
2023-05-27T06:08:32.935Z,100099.84
2023-05-27T06:10:24.231Z,100103.06
2023-05-27T06:12:16.267Z,100098.13
2023-05-27T06:14:07.552Z,100102.97
2023-05-27T06:16:00.741Z,100102.50
2023-05-27T06:17:55.583Z,100094.50
2023-05-27T06:19:46.778Z,100089.97
2023-05-27T06:21:38.089Z,100099.59
2023-05-27T06:23:39.887Z,100094.28
2023-05-27T06:25:34.288Z,100100.41
2023-05-27T06:27:33.139Z,100105.75
2023-05-27T06:29:24.327Z,100100.84
2023-05-27T06:31:20.511Z,100104.34
2023-05-27T06:33:14.247Z,100103.31
2023-05-27T06:35:07.728Z,100109.59
2023-05-27T06:37:00.051Z,100109.59
2023-05-27T06:38:53.332Z,100106.22
2023-05-27T06:40:48.527Z,100095.88
2023-05-27T06:42:39.515Z,100105.50
2023-05-27T06:44:31.086Z,100097.81
2023-05-27T06:46:22.699Z,100109.22
2023-05-27T06:48:13.670Z,100093.84
2023-05-27T06:50:06.884Z,100095.66
2023-05-27T06:51:58.302Z,100094.69
2023-05-27T06:53:52.964Z,100095.75
2023-05-27T06:55:44.438Z,100099.81
2023-05-27T06:57:35.363Z,100106.75
2023-05-27T06:59:27.117Z,100097.41
2023-05-27T07:01:21.791Z,100101.38
2023-05-27T07:03:13.554Z,100097.59
2023-05-27T07:05:05.920Z,100093.06
2023-05-27T07:06:56.767Z,100093.00
2023-05-27T07:08:49.388Z,100098.34
2023-05-27T07:10:45.771Z,100095.69
2023-05-27T07:12:36.393Z,100103.13
2023-05-27T07:14:27.515Z,100097.78
2023-05-27T07:16:18.311Z,100104.88
2023-05-27T07:18:12.348Z,100106.34
2023-05-27T07:20:03.488Z,100107.47
2023-05-27T07:21:54.547Z,100108.88
2023-05-27T07:23:45.923Z,100105.53
2023-05-27T07:25:38.342Z,100091.94
2023-05-27T07:27:29.689Z,100100.69
2023-05-27T07:29:24.291Z,100098.22
2023-05-27T07:31:20.190Z,100100.59
2023-05-27T07:33:15.795Z,100101.00
2023-05-27T07:35:12.100Z,100093.06
2023-05-27T07:37:08.368Z,100101.28
2023-05-27T07:39:03.474Z,100098.66
2023-05-27T07:40:58.544Z,100100.63
2023-05-27T07:42:54.456Z,100098.31
2023-05-27T07:44:45.529Z,100107.81
2023-05-27T07:46:37.740Z,100098.88
2023-05-27T07:48:33.480Z,100109.16
2023-05-27T07:50:25.825Z,100107.56
2023-05-27T07:52:17.401Z,100096.22
2023-05-27T07:54:14.457Z,100088.88
2023-05-27T07:56:06.426Z,100092.31
2023-05-27T07:57:58.861Z,100097.81
2023-05-27T07:59:50.941Z,100093.66
2023-05-27T08:01:44.120Z,100098.97
2023-05-27T08:03:37.510Z,100092.78
2023-05-27T08:05:39.533Z,100087.47
2023-05-27T08:07:33.576Z,100087.88
2023-05-27T08:09:24.732Z,100096.00
2023-05-27T08:11:18.414Z,100090.97
2023-05-27T08:13:11.092Z,100089.72
2023-05-27T08:15:07.177Z,100089.53
2023-05-27T08:16:59.641Z,100095.16
2023-05-27T08:18:50.679Z,100089.78
2023-05-27T08:20:42.519Z,100091.41
2023-05-27T08:22:38.210Z,100097.28
2023-05-27T08:24:31.088Z,100095.41
2023-05-27T08:26:25.395Z,100088.97
2023-05-27T08:28:18.193Z,100098.59
2023-05-27T08:30:19.640Z,100091.03
2023-05-27T08:32:11.579Z,100090.94
2023-05-27T08:34:03.619Z,100092.75
2023-05-27T08:35:59.685Z,100099.09
2023-05-27T08:37:53.144Z,100101.03
2023-05-27T08:39:45.136Z,100093.22
2023-05-27T08:41:40.286Z,100093.94
2023-05-27T08:43:33.155Z,100094.94
2023-05-27T08:45:25.526Z,100088.38
2023-05-27T08:47:19.997Z,100089.75
2023-05-27T08:49:10.891Z,100088.63
2023-05-27T08:51:08.693Z,100091.00
2023-05-27T08:53:02.734Z,100087.09
2023-05-27T08:54:59.465Z,100083.53
2023-05-27T08:56:56.918Z,100083.59
2023-05-27T08:58:48.428Z,100085.00
2023-05-27T09:00:41.262Z,100074.25
2023-05-27T09:02:36.547Z,100078.38
2023-05-27T09:04:29.326Z,100068.25
2023-05-27T09:06:25.517Z,100073.72
2023-05-27T09:08:16.902Z,100082.31
2023-05-27T09:10:10.274Z,100074.25
2023-05-27T09:12:07.696Z,100065.31
2023-05-27T09:13:58.824Z,100073.81
2023-05-27T09:15:49.854Z,100077.91
2023-05-27T09:17:45.716Z,100074.69
2023-05-27T09:19:36.582Z,100071.16
2023-05-27T09:21:28.094Z,100072.47
2023-05-27T09:23:18.958Z,100070.09
2023-05-27T09:25:12.797Z,100068.91
2023-05-27T09:27:05.603Z,100066.50
2023-05-27T09:29:01.457Z,100055.31
2023-05-27T09:31:13.778Z,100058.44
2023-05-27T09:33:07.602Z,100052.28
2023-05-27T09:35:01.327Z,100057.41
2023-05-27T09:36:53.228Z,100053.53
2023-05-27T09:38:47.541Z,100056.75
2023-05-27T09:40:38.468Z,100052.00
2023-05-27T09:42:44.510Z,100053.06
2023-05-27T09:44:38.267Z,100046.47
2023-05-27T09:46:38.725Z,100045.03
2023-05-27T09:48:34.034Z,100047.16
2023-05-27T09:50:27.566Z,100047.03
2023-05-27T09:52:20.251Z,100041.13
2023-05-27T09:54:19.855Z,100047.91
2023-05-27T09:56:10.949Z,100049.56
2023-05-27T09:58:13.881Z,100047.16
2023-05-27T10:00:10.396Z,100048.81
2023-05-27T10:02:02.482Z,100058.88
2023-05-27T10:03:59.910Z,100056.78
2023-05-27T10:05:52.917Z,100055.56
2023-05-27T10:08:08.566Z,100058.38
2023-05-27T10:09:57.106Z,100054.00
2023-05-27T10:11:50.468Z,100048.03
2023-05-27T10:13:42.232Z,100047.63
2023-05-27T10:15:39.059Z,100034.97
2023-05-27T10:18:07.171Z,100037.59
2023-05-27T10:20:03.406Z,100039.44
2023-05-27T10:22:15.734Z,100041.63
2023-05-27T10:24:14.542Z,100034.28
2023-05-27T10:26:11.380Z,100036.44
2023-05-27T10:28:34.671Z,100041.31
2023-05-27T10:30:27.808Z,100036.16
2023-05-27T10:32:19.196Z,100035.81
2023-05-27T10:34:10.490Z,100032.75
2023-05-27T10:36:18.982Z,100031.03
2023-05-27T10:38:20.095Z,100031.53
2023-05-27T10:40:38.996Z,100025.63
2023-05-27T10:42:31.361Z,100016.97
2023-05-27T10:44:37.427Z,100025.84
2023-05-27T10:46:46.372Z,100021.84
2023-05-27T10:48:40.203Z,100021.53
2023-05-27T10:50:38.314Z,100027.50
2023-05-27T10:52:32.035Z,100021.00
2023-05-27T10:54:29.331Z,100022.31
2023-05-27T10:56:22.935Z,100025.41
2023-05-27T10:58:14.260Z,100017.63
2023-05-27T11:00:12.000Z,100019.31
2023-05-27T11:02:06.768Z,100015.28
2023-05-27T11:04:01.070Z,100014.28
2023-05-27T11:06:07.683Z,100026.69
2023-05-27T11:08:03.732Z,100020.84
2023-05-27T11:09:57.351Z,100020.78
2023-05-27T11:11:55.562Z,100006.72
2023-05-27T11:13:48.918Z,100011.34
2023-05-27T11:15:46.427Z,100007.59
2023-05-27T11:17:37.784Z,100012.22
2023-05-27T11:19:31.649Z,100004.81
2023-05-27T11:21:23.190Z,100009.03
2023-05-27T11:23:14.186Z,100010.28
2023-05-27T11:25:06.310Z,100004.44
2023-05-27T11:27:15.871Z,100016.47
2023-05-27T11:29:12.018Z,100003.47
2023-05-27T11:31:11.854Z,100005.97
2023-05-27T11:33:05.627Z,100004.19
2023-05-27T11:34:56.564Z,100004.25
2023-05-27T11:36:51.190Z,100014.47
2023-05-27T11:38:59.837Z,100007.06
2023-05-27T11:40:50.750Z,100005.78
2023-05-27T11:42:48.407Z,100004.44
2023-05-27T11:44:39.220Z,100001.00
2023-05-27T11:46:43.175Z,100004.56
2023-05-27T11:48:35.513Z,100000.50
2023-05-27T11:50:29.045Z,100000.50
2023-05-27T11:52:27.878Z,99998.19
2023-05-27T11:54:28.064Z,99999.56
2023-05-27T11:56:20.234Z,99992.72
2023-05-27T11:58:11.307Z,99998.63
2023-05-27T12:00:05.273Z,99997.34
2023-05-27T12:01:56.896Z,99994.47
2023-05-27T12:03:48.980Z,99992.44
2023-05-27T12:05:40.910Z,99989.63
2023-05-27T12:07:33.501Z,99988.59
2023-05-27T12:09:25.277Z,100000.41
2023-05-27T12:11:16.295Z,99994.31
2023-05-27T12:13:07.919Z,99988.22
2023-05-27T12:14:59.009Z,99985.34
2023-05-27T12:16:50.543Z,99989.63
2023-05-27T12:18:41.739Z,99983.03
2023-05-27T12:20:33.413Z,99985.41
2023-05-27T12:22:24.968Z,99977.00
2023-05-27T12:24:16.254Z,99991.25
2023-05-27T12:26:07.863Z,99989.25
2023-05-27T12:27:59.320Z,99986.38
2023-05-27T12:29:50.692Z,99976.72
2023-05-27T12:31:43.445Z,99968.31
2023-05-27T12:33:35.396Z,99977.09
2023-05-27T12:35:33.377Z,99967.81
2023-05-27T12:37:28.084Z,99964.16
2023-05-27T12:39:22.788Z,99967.19
2023-05-27T12:41:14.659Z,99971.06
2023-05-27T12:43:09.259Z,99972.75
2023-05-27T12:45:04.206Z,99960.97
2023-05-27T12:46:57.703Z,99967.78
2023-05-27T12:48:52.454Z,99973.00
2023-05-27T12:50:43.770Z,99969.00
2023-05-27T12:52:35.817Z,99959.19
2023-05-27T12:54:27.169Z,99970.34
2023-05-27T12:56:19.101Z,99971.72
2023-05-27T12:58:10.610Z,99967.66
2023-05-27T13:00:01.600Z,99959.50
2023-05-27T13:01:53.914Z,99965.91
2023-05-27T13:03:45.217Z,99966.09
2023-05-27T13:05:36.426Z,99970.00
2023-05-27T13:07:41.616Z,99954.47
2023-05-27T13:09:33.734Z,99962.56
2023-05-27T13:11:25.010Z,99956.75
2023-05-27T13:13:16.140Z,99963.81
2023-05-27T13:15:07.882Z,99958.75
2023-05-27T13:16:58.895Z,99959.22
2023-05-27T13:18:49.398Z,99949.22
2023-05-27T13:20:40.557Z,99941.78
2023-05-27T13:22:31.890Z,99938.78
2023-05-27T13:24:22.637Z,99942.00
2023-05-27T13:26:15.400Z,99943.22
2023-05-27T13:28:07.137Z,99941.00
2023-05-27T13:30:03.991Z,99941.53
2023-05-27T13:31:55.115Z,99941.63
2023-05-27T13:33:46.080Z,99942.63
2023-05-27T13:35:37.031Z,99942.63
2023-05-27T13:37:28.160Z,99939.06
2023-05-27T13:39:23.383Z,99939.25
2023-05-27T13:43:24.363Z,99934.44
2023-05-27T13:45:15.210Z,99926.66
2023-05-27T13:47:14.644Z,99931.94
2023-05-27T13:49:10.494Z,99922.91
2023-05-27T13:51:08.729Z,99926.47
2023-05-27T13:53:00.140Z,99913.50
2023-05-27T13:54:51.921Z,99911.28
2023-05-27T13:56:43.083Z,99916.88
2023-05-27T13:58:36.261Z,99916.69
2023-05-27T14:00:33.978Z,99917.72
2023-05-27T14:02:31.043Z,99911.16
2023-05-27T14:04:29.920Z,99910.47
2023-05-27T14:06:26.336Z,99904.25
2023-05-27T14:08:17.436Z,99911.22
2023-05-27T14:10:10.390Z,99907.84
2023-05-27T14:12:04.050Z,99911.72
2023-05-27T14:13:57.150Z,99903.69
2023-05-27T14:15:48.000Z,99913.00
2023-05-27T14:17:42.453Z,99903.88
2023-05-27T14:19:37.624Z,99900.13
2023-05-27T14:21:33.056Z,99910.06
2023-05-27T14:23:26.929Z,99907.94
2023-05-27T14:25:27.954Z,99924.47
2023-05-27T14:27:34.799Z,99905.16
2023-05-27T14:29:34.114Z,99908.88
2023-05-27T14:31:38.207Z,99900.91
2023-05-27T14:33:30.228Z,99898.75
2023-05-27T14:35:25.692Z,99894.41
2023-05-27T14:37:19.310Z,99895.56
2023-05-27T14:39:20.907Z,99889.78
2023-05-27T14:41:27.156Z,99880.66
2023-05-27T14:43:19.043Z,99890.44
2023-05-27T14:45:10.792Z,99883.63
2023-05-27T14:47:15.759Z,99884.13
2023-05-27T14:49:07.072Z,99874.69
2023-05-27T14:51:03.389Z,99877.75
2023-05-27T14:52:55.746Z,99884.31
2023-05-27T14:54:48.399Z,99882.97
2023-05-27T14:56:43.615Z,99878.22
2023-05-27T14:58:35.955Z,99877.56
2023-05-27T15:00:27.911Z,99871.66
2023-05-27T15:02:19.542Z,99867.97
2023-05-27T15:04:14.262Z,99867.97
2023-05-27T15:06:15.455Z,99859.53
2023-05-27T15:08:16.909Z,99855.13
2023-05-27T15:10:11.605Z,99859.88
2023-05-27T15:12:02.985Z,99853.03
2023-05-27T15:13:54.111Z,99857.25
2023-05-27T15:15:45.102Z,99843.38
2023-05-27T15:17:36.205Z,99854.47
2023-05-27T15:19:26.788Z,99845.69
2023-05-27T15:21:17.740Z,99850.09
2023-05-27T15:23:09.401Z,99852.19
2023-05-27T15:25:00.173Z,99858.69
2023-05-27T15:26:51.158Z,99850.09
2023-05-27T15:28:44.650Z,99848.03
2023-05-27T15:30:35.997Z,99848.72
2023-05-27T15:32:27.554Z,99845.69
2023-05-27T15:34:21.966Z,99845.69
2023-05-27T15:36:14.810Z,99836.22
2023-05-27T15:38:25.941Z,99840.19
2023-05-27T15:40:18.050Z,99839.34
2023-05-27T15:42:12.642Z,99836.28
2023-05-27T15:44:05.774Z,99835.31
2023-05-27T15:46:04.783Z,99837.94
2023-05-27T15:47:58.112Z,99835.72
2023-05-27T15:49:49.408Z,99832.88
2023-05-27T15:51:40.480Z,99833.53
2023-05-27T15:53:32.464Z,99846.38
2023-05-27T15:55:24.458Z,99840.97
2023-05-27T15:57:15.561Z,99836.97
2023-05-27T15:59:06.413Z,99830.69
2023-05-27T16:00:57.416Z,99831.16
2023-05-27T16:02:48.632Z,99823.38
2023-05-27T16:04:40.779Z,99828.09
2023-05-27T16:06:31.669Z,99825.41
2023-05-27T16:08:23.088Z,99829.78
2023-05-27T16:10:14.051Z,99814.59
2023-05-27T16:12:06.009Z,99821.50
2023-05-27T16:13:57.019Z,99820.00
2023-05-27T16:15:52.607Z,99821.88
2023-05-27T16:17:44.262Z,99822.88
2023-05-27T16:19:38.793Z,99822.03
2023-05-27T16:21:40.085Z,99824.72
2023-05-27T16:23:31.525Z,99826.75
2023-05-27T16:25:24.209Z,99824.19
2023-05-27T16:27:21.682Z,99818.66
2023-05-27T16:29:13.381Z,99824.53
2023-05-27T16:31:11.912Z,99825.56
2023-05-27T16:33:03.557Z,99819.97
2023-05-27T16:34:56.540Z,99819.44
2023-05-27T16:36:47.798Z,99806.44
2023-05-27T16:38:41.881Z,99813.19
2023-05-27T16:40:33.174Z,99806.09
2023-05-27T16:42:24.589Z,99805.59
2023-05-27T16:44:15.555Z,99808.78
2023-05-27T16:46:08.144Z,99803.91
2023-05-27T16:47:59.275Z,99817.56
2023-05-27T16:49:50.574Z,99801.34
2023-05-27T16:51:41.991Z,99806.41
2023-05-27T16:53:33.526Z,99809.56
2023-05-27T16:55:24.424Z,99814.81
2023-05-27T16:57:15.334Z,99815.16
2023-05-27T16:59:06.676Z,99816.16
2023-05-27T17:01:00.312Z,99817.00
2023-05-27T17:02:54.605Z,99809.75
2023-05-27T17:04:45.499Z,99811.06
2023-05-27T17:06:39.323Z,99811.72
2023-05-27T17:08:30.064Z,99822.31
2023-05-27T17:10:21.486Z,99810.47
2023-05-27T17:12:12.377Z,99812.81
2023-05-27T17:14:03.065Z,99801.25
2023-05-27T17:15:55.829Z,99810.00
2023-05-27T17:17:47.277Z,99811.31
2023-05-27T17:19:38.262Z,99814.69
2023-05-27T17:21:29.353Z,99819.03
2023-05-27T17:23:26.305Z,99816.00
2023-05-27T17:25:17.183Z,99816.63
2023-05-27T17:27:19.150Z,99815.78
2023-05-27T17:29:21.590Z,99822.88
2023-05-27T17:31:13.074Z,99815.44
2023-05-27T17:33:04.543Z,99816.13
2023-05-27T17:34:55.214Z,99824.38
2023-05-27T17:36:46.004Z,99817.75
2023-05-27T17:38:36.967Z,99821.13
2023-05-27T17:40:27.967Z,99823.28
2023-05-27T17:42:19.485Z,99820.72
2023-05-27T17:44:11.347Z,99820.06
2023-05-27T17:46:02.176Z,99822.81
2023-05-27T17:47:53.492Z,99826.00
2023-05-27T17:49:44.918Z,99819.22
2023-05-27T17:51:35.811Z,99825.91
2023-05-27T17:53:27.268Z,99820.84
2023-05-27T17:55:18.383Z,99831.25
2023-05-27T17:57:09.038Z,99833.41
2023-05-27T17:59:00.007Z,99834.53
2023-05-27T18:00:51.395Z,99830.44
2023-05-27T18:02:42.463Z,99835.59
2023-05-27T18:04:33.594Z,99843.78
2023-05-27T18:06:24.757Z,99835.28
2023-05-27T18:08:15.753Z,99837.31
2023-05-27T18:10:08.144Z,99831.84
2023-05-27T18:11:59.147Z,99840.53
2023-05-27T18:13:49.816Z,99845.34
2023-05-27T18:15:43.094Z,99847.34
2023-05-27T18:17:37.917Z,99844.41
2023-05-27T18:19:29.924Z,99847.41
2023-05-27T18:21:21.082Z,99837.25
2023-05-27T18:23:12.441Z,99845.06
2023-05-27T18:25:04.041Z,99844.25
2023-05-27T18:26:54.969Z,99837.19
2023-05-27T18:28:47.476Z,99845.72
2023-05-27T18:30:38.706Z,99837.78
2023-05-27T18:32:29.926Z,99844.31
2023-05-27T18:34:21.206Z,99852.00
2023-05-27T18:36:12.085Z,99851.44
2023-05-27T18:38:02.954Z,99852.88
2023-05-27T18:39:56.719Z,99850.63
2023-05-27T18:41:48.233Z,99861.97
2023-05-27T18:43:42.508Z,99863.69
2023-05-27T18:45:56.998Z,99868.38
2023-05-27T18:47:48.074Z,99868.63
2023-05-27T18:49:39.308Z,99877.72
2023-05-27T18:51:30.671Z,99879.69
2023-05-27T18:53:22.726Z,99880.69
2023-05-27T18:55:13.759Z,99880.13
2023-05-27T18:57:05.449Z,99882.13
2023-05-27T18:58:56.963Z,99879.84
2023-05-27T19:00:48.946Z,99883.13
2023-05-27T19:02:40.650Z,99890.78
2023-05-27T19:04:31.807Z,99894.59
2023-05-27T19:06:22.590Z,99887.50
2023-05-27T19:08:15.112Z,99888.66
2023-05-27T19:10:06.449Z,99887.09
2023-05-27T19:11:57.151Z,99887.22
2023-05-27T19:13:48.242Z,99889.31
2023-05-27T19:15:40.159Z,99887.91
2023-05-27T19:17:31.744Z,99894.56
2023-05-27T19:19:22.742Z,99892.44
2023-05-27T19:21:13.378Z,99888.31
2023-05-27T19:23:04.397Z,99894.69
2023-05-27T19:24:58.725Z,99891.28
2023-05-27T19:26:50.260Z,99897.81
2023-05-27T19:28:41.421Z,99890.84
2023-05-27T19:30:33.466Z,99898.91
2023-05-27T19:32:24.577Z,99890.84
2023-05-27T19:34:15.871Z,99898.22
2023-05-27T19:36:09.854Z,99903.88
2023-05-27T19:38:04.409Z,99894.84
2023-05-27T19:39:55.680Z,99895.53
2023-05-27T19:41:47.029Z,99901.75
2023-05-27T19:43:37.737Z,99896.22
2023-05-27T19:45:28.799Z,99906.00
2023-05-27T19:47:23.209Z,99901.50
2023-05-27T19:49:15.661Z,99903.03
2023-05-27T19:51:08.832Z,99907.44
2023-05-27T19:52:59.767Z,99901.19
2023-05-27T19:54:50.783Z,99896.97
2023-05-27T19:56:42.188Z,99896.22
2023-05-27T19:58:33.323Z,99893.53
2023-05-27T20:00:24.667Z,99898.22
2023-05-27T20:02:15.936Z,99904.72
2023-05-27T20:04:06.793Z,99897.94
2023-05-27T20:05:57.646Z,99894.94
2023-05-27T20:07:49.514Z,99903.28
2023-05-27T20:09:40.278Z,99896.09
2023-05-27T20:11:31.358Z,99892.53
2023-05-27T20:13:22.394Z,99894.25
2023-05-27T20:15:15.064Z,99898.06
2023-05-27T20:17:06.334Z,99895.63
2023-05-27T20:18:57.250Z,99898.47
2023-05-27T20:20:48.432Z,99900.72
2023-05-27T20:22:40.951Z,99901.00
2023-05-27T20:24:31.418Z,99910.31
2023-05-27T20:26:22.378Z,99904.22
2023-05-27T20:28:15.070Z,99907.19
2023-05-27T20:30:08.126Z,99906.03
2023-05-27T20:31:59.218Z,99905.44
2023-05-27T20:33:49.999Z,99899.53
2023-05-27T20:35:41.036Z,99894.25
2023-05-27T20:37:32.597Z,99898.94
2023-05-27T20:39:23.400Z,99902.00
2023-05-27T20:41:14.324Z,99906.66
2023-05-27T20:43:06.999Z,99901.69
2023-05-27T20:44:57.818Z,99898.28
2023-05-27T20:46:55.037Z,99905.63
2023-05-27T20:48:46.139Z,99899.69
2023-05-27T20:50:37.415Z,99897.25
2023-05-27T20:52:28.308Z,99896.78
2023-05-27T20:54:19.348Z,99891.00
2023-05-27T20:56:10.646Z,99896.47
2023-05-27T20:58:01.955Z,99895.91
2023-05-27T20:59:52.740Z,99907.78
2023-05-27T21:01:44.004Z,99902.09
2023-05-27T21:03:38.279Z,99896.41
2023-05-27T21:05:29.383Z,99894.94
2023-05-27T21:07:20.329Z,99900.59
2023-05-27T21:09:11.726Z,99898.28
2023-05-27T21:11:02.678Z,99906.84
2023-05-27T21:12:54.202Z,99900.31
2023-05-27T21:14:47.304Z,99897.06
2023-05-27T21:16:45.595Z,99902.94
2023-05-27T21:18:36.704Z,99893.56
2023-05-27T21:20:28.163Z,99897.50
2023-05-27T21:22:19.945Z,99892.25
2023-05-27T21:24:11.864Z,99902.41
2023-05-27T21:26:02.890Z,99901.94
2023-05-27T21:27:53.964Z,99890.84
2023-05-27T21:29:48.186Z,99900.84
2023-05-27T21:31:40.129Z,99900.84
2023-05-27T21:33:31.125Z,99902.19
2023-05-27T21:35:21.925Z,99907.84
2023-05-27T21:37:12.983Z,99909.91
2023-05-27T21:39:06.150Z,99901.28
2023-05-27T21:40:56.757Z,99910.16
2023-05-27T21:42:47.916Z,99902.41
2023-05-27T21:44:39.131Z,99901.78
2023-05-27T21:46:32.195Z,99906.28
2023-05-27T21:48:22.950Z,99900.44
2023-05-27T21:50:13.926Z,99908.88
2023-05-27T21:52:05.080Z,99902.91
2023-05-27T21:53:57.873Z,99907.41
2023-05-27T21:55:49.271Z,99906.00
2023-05-27T21:57:40.946Z,99903.06
2023-05-27T21:59:39.073Z,99905.28
2023-05-27T22:01:42.270Z,99908.81
2023-05-27T22:03:33.519Z,99902.59
2023-05-27T22:05:40.010Z,99900.16